Asher, Oklahoma
Current Conditions -  °F | °C
As of 1:55 PM on Sunday 23 Nov 2014 (Local Time) from KADH Reporting Station
Clear Clear  
Wind Chill: 68°   Ceiling: Unl
Heat Index: 68°   Visibility: 10mi
Dew Point: 48°   Wind: 14mph
Humidity: 49%   Direction: 250°WSW
Pressure: 29.32"   Gusts: NA
Location:  34.99°N, 96.92°W
Report Text: KADH 231955Z AUTO 25012KT 10SM CLR 20/09 A2932 RMK AO2
Loading
Personal Weather Stations






























Interactive Weather Map New forecast layout! Learn more

10-Day Weather Forecast

Advertisements
Track Severe Weather on mobile